createdAt,value
2019-01-19T00:01:15.260Z,2.71
2019-01-19T00:04:21.592Z,2.61
2019-01-19T00:07:38.241Z,2.53
2019-01-19T00:10:32.149Z,2.64
2019-01-19T00:13:29.576Z,2.68
2019-01-19T00:16:10.750Z,2.62
2019-01-19T00:19:13.764Z,2.44
2019-01-19T00:21:57.111Z,2.31
2019-01-19T00:24:36.626Z,2.40
2019-01-19T00:27:31.720Z,2.57
2019-01-19T00:30:35.469Z,2.57
2019-01-19T00:33:28.024Z,2.55
2019-01-19T00:36:06.893Z,2.61
2019-01-19T00:38:56.649Z,2.59
2019-01-19T00:42:02.651Z,2.54
2019-01-19T00:44:56.986Z,2.48
2019-01-19T00:48:25.463Z,2.37
2019-01-19T00:51:42.617Z,2.37
2019-01-19T00:54:19.637Z,2.45
2019-01-19T00:57:26.299Z,2.44
2019-01-19T01:00:00.315Z,2.39
2019-01-19T01:02:42.140Z,2.52
2019-01-19T01:05:50.099Z,2.56
2019-01-19T01:09:12.496Z,2.56
2019-01-19T01:11:54.647Z,2.51
2019-01-19T01:15:00.676Z,2.43
2019-01-19T01:17:50.897Z,2.41
2019-01-19T01:20:52.741Z,2.42
2019-01-19T01:24:12.256Z,2.43
2019-01-19T01:27:13.414Z,2.48
2019-01-19T01:30:29.642Z,2.41
2019-01-19T01:33:43.280Z,2.47
2019-01-19T01:36:49.620Z,2.51
2019-01-19T01:39:52.291Z,2.57
2019-01-19T01:42:51.919Z,2.41
2019-01-19T01:46:14.304Z,2.53
2019-01-19T01:49:29.740Z,2.54
2019-01-19T01:52:11.679Z,2.55
2019-01-19T01:54:56.487Z,2.44
2019-01-19T01:57:30.579Z,2.35
2019-01-19T02:00:48.559Z,2.50
2019-01-19T02:04:01.775Z,2.59
2019-01-19T02:07:30.177Z,2.65
2019-01-19T02:10:49.409Z,2.61
2019-01-19T02:14:05.701Z,2.58
2019-01-19T02:17:05.900Z,2.61
2019-01-19T02:20:34.308Z,2.54
2019-01-19T02:23:35.801Z,2.47
2019-01-19T02:26:51.226Z,2.41
2019-01-19T02:30:04.692Z,2.38
2019-01-19T02:33:07.137Z,2.35
2019-01-19T02:36:18.463Z,2.28
2019-01-19T02:39:18.948Z,2.24
2019-01-19T02:42:18.516Z,2.23
2019-01-19T02:45:28.770Z,2.41
2019-01-19T02:48:24.703Z,2.31
2019-01-19T02:51:06.097Z,2.21
2019-01-19T02:54:11.011Z,2.10
2019-01-19T02:57:22.888Z,2.13
2019-01-19T03:00:25.470Z,2.07
2019-01-19T03:03:21.845Z,2.07
2019-01-19T03:06:10.599Z,1.98
2019-01-19T03:09:27.255Z,1.90
2019-01-19T03:12:40.275Z,2.08
2019-01-19T03:16:02.193Z,1.97
2019-01-19T03:18:58.260Z,1.95
2019-01-19T03:21:56.567Z,1.87
2019-01-19T03:25:02.648Z,1.99
2019-01-19T03:28:01.881Z,2.11
2019-01-19T03:31:10.454Z,2.06
2019-01-19T03:34:02.524Z,1.81
2019-01-19T03:37:00.053Z,1.73
2019-01-19T03:39:40.751Z,1.84
2019-01-19T03:42:53.094Z,1.85
2019-01-19T03:46:04.065Z,1.79
2019-01-19T03:49:15.705Z,1.68
2019-01-19T03:52:07.465Z,1.59
2019-01-19T03:55:26.427Z,1.65
2019-01-19T03:58:20.435Z,1.65
2019-01-19T04:01:32.060Z,1.63
2019-01-19T04:05:03.485Z,1.52
2019-01-19T04:08:16.596Z,1.51
2019-01-19T04:11:41.938Z,1.58
2019-01-19T04:14:53.001Z,1.60
2019-01-19T04:17:58.837Z,1.48
2019-01-19T04:20:53.605Z,1.40
2019-01-19T04:23:23.348Z,1.29
2019-01-19T04:25:59.934Z,1.29
2019-01-19T04:28:29.840Z,1.24
2019-01-19T04:30:59.340Z,1.16
2019-01-19T04:33:28.925Z,1.34
2019-01-19T04:35:58.869Z,1.55
2019-01-19T04:38:28.328Z,1.64
2019-01-19T04:40:58.223Z,1.64
2019-01-19T04:43:27.747Z,1.61
2019-01-19T04:45:57.133Z,1.58
2019-01-19T04:48:26.688Z,1.56
2019-01-19T04:50:56.128Z,1.62
2019-01-19T04:53:25.566Z,1.72
2019-01-19T04:55:55.098Z,1.69
2019-01-19T04:58:24.637Z,1.54
2019-01-19T05:00:54.029Z,1.53
2019-01-19T05:03:23.449Z,1.66
2019-01-19T05:05:53.242Z,1.68
2019-01-19T05:08:22.712Z,1.65
2019-01-19T05:10:52.202Z,1.54
2019-01-19T05:13:21.639Z,1.49
2019-01-19T05:15:51.145Z,1.52
2019-01-19T05:18:20.709Z,1.57
2019-01-19T05:20:51.911Z,1.55
2019-01-19T05:23:21.364Z,1.52
2019-01-19T05:25:50.851Z,1.51
2019-01-19T05:28:20.306Z,1.48
2019-01-19T05:30:49.798Z,1.51
2019-01-19T05:33:19.282Z,1.41
2019-01-19T05:35:48.693Z,1.31
2019-01-19T05:38:18.206Z,1.21
2019-01-19T05:40:47.696Z,1.38
2019-01-19T05:43:18.209Z,1.43
2019-01-19T05:45:47.619Z,1.29
2019-01-19T05:48:17.027Z,1.35
2019-01-19T05:50:46.585Z,1.50
2019-01-19T05:53:16.066Z,1.66
2019-01-19T05:55:45.541Z,1.70
2019-01-19T05:58:15.154Z,1.74
2019-01-19T06:00:44.840Z,1.80
2019-01-19T06:03:14.365Z,1.77
2019-01-19T06:05:44.000Z,1.74
2019-01-19T06:08:13.518Z,1.79
2019-01-19T06:10:42.947Z,1.84
2019-01-19T06:13:12.385Z,1.90
2019-01-19T06:15:42.069Z,1.98
2019-01-19T06:18:14.524Z,2.03
2019-01-19T06:20:43.961Z,2.08
2019-01-19T06:23:13.494Z,2.13
2019-01-19T06:25:43.047Z,2.12
2019-01-19T06:28:12.667Z,2.11
2019-01-19T06:30:42.067Z,2.17
2019-01-19T06:33:11.543Z,2.03
2019-01-19T06:35:41.076Z,2.16
2019-01-19T06:38:10.571Z,2.20
2019-01-19T06:40:40.053Z,2.32
2019-01-19T06:43:09.723Z,2.44
2019-01-19T06:45:39.598Z,2.61
2019-01-19T06:48:09.012Z,2.73
2019-01-19T06:50:38.575Z,2.81
2019-01-19T06:53:08.085Z,2.89
2019-01-19T06:55:37.937Z,2.93
2019-01-19T06:58:07.882Z,3.01
2019-01-19T07:00:37.381Z,3.04
2019-01-19T07:03:06.976Z,3.10
2019-01-19T07:05:36.470Z,3.13
2019-01-19T07:08:06.072Z,3.17
2019-01-19T07:10:35.805Z,3.19
2019-01-19T07:13:05.602Z,3.25
2019-01-19T07:15:35.080Z,3.27
2019-01-19T07:18:04.596Z,3.30
2019-01-19T07:20:34.142Z,3.34
2019-01-19T07:23:03.636Z,3.41
2019-01-19T07:25:33.183Z,3.30
2019-01-19T07:28:02.647Z,3.27
2019-01-19T07:30:32.242Z,3.38
2019-01-19T07:33:01.782Z,3.46
2019-01-19T07:35:31.205Z,3.46
2019-01-19T07:38:00.636Z,3.49
2019-01-19T07:40:30.164Z,3.44
2019-01-19T07:43:03.434Z,2.94
2019-01-19T07:45:32.854Z,3.21
2019-01-19T07:48:02.468Z,3.59
2019-01-19T07:50:32.191Z,3.70
2019-01-19T07:53:01.674Z,3.92
2019-01-19T07:55:31.191Z,4.08
2019-01-19T07:58:00.795Z,4.25
2019-01-19T08:00:31.882Z,4.37
2019-01-19T08:03:03.278Z,4.50
2019-01-19T08:05:32.994Z,4.62
2019-01-19T08:08:03.531Z,4.28
2019-01-19T08:10:32.925Z,4.46
2019-01-19T08:13:02.401Z,4.30
2019-01-19T08:15:31.888Z,4.55
2019-01-19T08:18:01.382Z,4.50
2019-01-19T08:20:30.991Z,4.62
2019-01-19T08:23:00.403Z,4.40
2019-01-19T08:25:29.942Z,4.39
2019-01-19T08:27:59.640Z,4.53
2019-01-19T08:30:31.550Z,4.67
2019-01-19T08:33:00.998Z,4.93
2019-01-19T08:35:31.916Z,4.96
2019-01-19T08:38:01.400Z,5.05
2019-01-19T08:40:33.357Z,5.04
2019-01-19T08:43:19.419Z,5.06
2019-01-19T08:45:48.927Z,5.05
2019-01-19T08:48:18.501Z,5.01
2019-01-19T08:50:48.029Z,5.39
2019-01-19T08:53:17.551Z,5.79
2019-01-19T08:55:46.931Z,5.82
2019-01-19T08:58:16.591Z,6.04
2019-01-19T09:00:46.083Z,6.28
2019-01-19T09:03:15.575Z,6.50
2019-01-19T09:05:47.062Z,6.75
2019-01-19T09:08:16.675Z,6.87
2019-01-19T09:10:46.201Z,6.91
2019-01-19T09:13:15.761Z,6.82
2019-01-19T09:15:46.106Z,6.89
2019-01-19T09:18:15.563Z,7.01
2019-01-19T09:20:45.424Z,7.01
2019-01-19T09:23:23.940Z,7.07
2019-01-19T09:25:53.733Z,7.33
2019-01-19T09:28:23.324Z,7.30
2019-01-19T09:30:53.053Z,7.38
2019-01-19T09:33:23.137Z,7.23
2019-01-19T09:35:52.671Z,7.35
2019-01-19T09:38:22.759Z,7.60
2019-01-19T09:40:52.309Z,7.75
2019-01-19T09:43:21.709Z,7.91
2019-01-19T09:45:51.213Z,7.88
2019-01-19T09:48:20.746Z,7.94
2019-01-19T09:50:50.267Z,7.92
2019-01-19T09:53:19.665Z,8.11
2019-01-19T09:55:49.424Z,8.25
2019-01-19T09:58:18.915Z,8.19
2019-01-19T10:00:48.324Z,8.33
2019-01-19T10:03:17.741Z,8.39
2019-01-19T10:05:47.256Z,8.40
2019-01-19T10:08:16.732Z,8.57
2019-01-19T10:10:46.475Z,8.68
2019-01-19T10:13:15.884Z,8.96
2019-01-19T10:15:45.376Z,9.09
2019-01-19T10:18:15.071Z,8.95
2019-01-19T10:20:44.465Z,9.01
2019-01-19T10:23:13.883Z,7.94
2019-01-19T10:25:43.789Z,8.08
2019-01-19T10:28:13.489Z,8.32
2019-01-19T10:30:42.868Z,8.34
2019-01-19T10:33:13.413Z,8.24
2019-01-19T10:35:42.899Z,8.33
2019-01-19T10:38:12.414Z,8.40
2019-01-19T10:40:41.860Z,8.47
2019-01-19T10:43:12.586Z,8.55
2019-01-19T10:45:42.054Z,8.62
2019-01-19T10:48:11.522Z,8.81
2019-01-19T10:50:41.022Z,8.92
2019-01-19T10:53:10.461Z,9.10
2019-01-19T10:55:39.885Z,9.30
2019-01-19T10:58:09.375Z,9.41
2019-01-19T11:00:38.851Z,9.40
2019-01-19T11:03:08.429Z,9.27
2019-01-19T11:05:37.853Z,9.43
2019-01-19T11:08:08.815Z,9.71
2019-01-19T11:10:38.345Z,9.74
2019-01-19T11:13:07.828Z,10.08
2019-01-19T11:15:37.269Z,9.91
2019-01-19T11:18:06.883Z,9.95
2019-01-19T11:20:36.411Z,10.00
2019-01-19T11:23:06.078Z,9.62
2019-01-19T11:25:36.279Z,9.62
2019-01-19T11:28:06.157Z,10.14
2019-01-19T11:30:35.575Z,10.41
2019-01-19T11:33:05.109Z,10.22
2019-01-19T11:35:34.709Z,10.39
2019-01-19T11:38:04.248Z,10.04
2019-01-19T11:40:38.609Z,10.15
2019-01-19T11:43:09.916Z,10.14
2019-01-19T11:45:39.856Z,9.96
2019-01-19T11:48:09.557Z,9.97
2019-01-19T11:50:39.089Z,10.19
2019-01-19T11:53:08.558Z,10.39
2019-01-19T11:55:38.118Z,10.18
2019-01-19T11:58:08.022Z,9.76
2019-01-19T12:00:39.600Z,9.33
2019-01-19T12:03:09.267Z,9.26
2019-01-19T12:05:39.836Z,9.61
2019-01-19T12:08:10.807Z,9.70
2019-01-19T12:10:40.354Z,9.65
2019-01-19T12:13:09.817Z,9.62
2019-01-19T12:15:39.293Z,9.62
2019-01-19T12:18:09.037Z,9.27
2019-01-19T12:20:44.248Z,9.39
2019-01-19T12:23:13.888Z,9.62
2019-01-19T12:25:43.287Z,9.76
2019-01-19T12:28:12.828Z,9.86
2019-01-19T12:30:42.523Z,10.16
2019-01-19T12:33:12.151Z,10.48
2019-01-19T12:35:41.555Z,10.50
2019-01-19T12:38:11.373Z,10.88
2019-01-19T12:40:40.870Z,10.94
2019-01-19T12:43:21.400Z,10.77
2019-01-19T12:46:02.724Z,10.87
2019-01-19T12:48:32.250Z,11.04
2019-01-19T12:51:03.817Z,10.83
2019-01-19T12:53:33.225Z,10.61
2019-01-19T12:56:02.664Z,10.71
2019-01-19T12:58:32.118Z,10.19
2019-01-19T13:01:01.703Z,10.18
2019-01-19T13:03:31.359Z,10.16
2019-01-19T13:06:41.219Z,10.04
2019-01-19T13:09:18.041Z,10.10
2019-01-19T13:12:23.021Z,9.98
2019-01-19T13:15:28.252Z,9.96
2019-01-19T13:18:41.524Z,10.07
2019-01-19T13:22:03.090Z,9.74
2019-01-19T13:25:22.511Z,9.81
2019-01-19T13:28:39.085Z,9.68
2019-01-19T13:31:53.140Z,9.49
2019-01-19T13:35:27.839Z,9.31
2019-01-19T13:38:55.838Z,9.47
2019-01-19T13:42:16.806Z,9.54
2019-01-19T13:45:05.532Z,9.49
2019-01-19T13:48:09.791Z,9.48
2019-01-19T13:51:02.455Z,9.42
2019-01-19T13:54:21.160Z,9.25
2019-01-19T13:57:43.736Z,9.34
2019-01-19T14:00:50.125Z,9.42
2019-01-19T14:04:15.549Z,9.47
2019-01-19T14:07:36.597Z,9.49
2019-01-19T14:10:37.758Z,9.31
2019-01-19T14:13:49.951Z,9.12
2019-01-19T14:16:39.661Z,9.02
2019-01-19T14:20:01.875Z,9.07
2019-01-19T14:23:24.811Z,9.11
2019-01-19T14:26:24.832Z,9.13
2019-01-19T14:29:36.660Z,9.10
2019-01-19T14:32:35.683Z,9.12
2019-01-19T14:35:38.432Z,9.11
2019-01-19T14:38:32.566Z,9.11
2019-01-19T14:41:38.974Z,9.02
2019-01-19T14:44:49.042Z,8.92
2019-01-19T14:47:38.725Z,8.81
2019-01-19T14:50:42.767Z,8.65
2019-01-19T14:53:58.703Z,8.53
2019-01-19T14:57:09.133Z,8.42
2019-01-19T15:00:11.318Z,8.31
2019-01-19T15:03:10.043Z,8.16
2019-01-19T15:06:29.195Z,8.07
2019-01-19T15:09:40.398Z,7.89
2019-01-19T15:12:43.927Z,7.80
2019-01-19T15:15:44.866Z,7.78
2019-01-19T15:18:52.325Z,7.69
2019-01-19T15:21:53.201Z,7.53
2019-01-19T15:25:18.462Z,7.40
2019-01-19T15:28:35.064Z,7.40
2019-01-19T15:31:32.167Z,7.43
2019-01-19T15:34:35.644Z,7.37
2019-01-19T15:37:45.702Z,7.36
2019-01-19T15:41:05.192Z,7.20
2019-01-19T15:44:18.865Z,7.26
2019-01-19T15:47:41.658Z,7.35
2019-01-19T15:51:04.860Z,7.32
2019-01-19T15:53:59.879Z,7.28
2019-01-19T15:57:05.811Z,7.27
2019-01-19T16:00:14.932Z,7.34
2019-01-19T16:03:14.148Z,7.39
2019-01-19T16:06:27.209Z,7.41
2019-01-19T16:09:42.674Z,7.39
2019-01-19T16:12:46.105Z,7.35
2019-01-19T16:15:59.310Z,7.37
2019-01-19T16:19:21.344Z,7.38
2019-01-19T16:22:25.516Z,7.16
2019-01-19T16:25:23.872Z,7.24
2019-01-19T16:28:24.772Z,7.21
2019-01-19T16:31:36.934Z,7.18
2019-01-19T16:34:43.893Z,7.14
2019-01-19T16:37:56.876Z,7.28
2019-01-19T16:41:10.576Z,7.41
2019-01-19T16:43:47.634Z,7.26
2019-01-19T16:47:01.173Z,7.30
2019-01-19T16:50:14.525Z,7.30
2019-01-19T16:53:12.614Z,7.38
2019-01-19T16:56:20.277Z,7.39
2019-01-19T16:59:21.058Z,7.32
2019-01-19T17:02:03.011Z,7.34
2019-01-19T17:05:14.882Z,7.24
2019-01-19T17:08:23.633Z,7.31
2019-01-19T17:11:32.290Z,7.34
2019-01-19T17:14:27.298Z,7.27
2019-01-19T17:17:34.751Z,7.21
2019-01-19T17:20:40.213Z,7.21
2019-01-19T17:23:31.190Z,7.24
2019-01-19T17:26:45.920Z,7.35
2019-01-19T17:29:58.401Z,7.36
2019-01-19T17:33:07.053Z,7.29
2019-01-19T17:36:13.454Z,7.17
2019-01-19T17:39:13.141Z,7.16
2019-01-19T17:42:03.197Z,7.05
2019-01-19T17:45:05.926Z,7.14
2019-01-19T17:47:56.984Z,7.05
2019-01-19T17:51:19.187Z,7.17
2019-01-19T17:54:15.476Z,7.27
2019-01-19T17:57:34.317Z,7.14
2019-01-19T18:00:44.607Z,7.06
2019-01-19T18:03:58.213Z,6.95
2019-01-19T18:06:52.121Z,7.09
2019-01-19T18:09:47.586Z,7.06
2019-01-19T18:13:09.477Z,6.85
2019-01-19T18:16:22.061Z,6.95
2019-01-19T18:19:30.664Z,6.95
2019-01-19T18:22:26.925Z,6.92
2019-01-19T18:25:43.065Z,6.93
2019-01-19T18:28:56.915Z,6.83
2019-01-19T18:32:00.768Z,6.79
2019-01-19T18:35:01.110Z,6.76
2019-01-19T18:38:10.256Z,6.69
2019-01-19T18:41:09.622Z,6.66
2019-01-19T18:44:25.946Z,6.67
2019-01-19T18:47:37.782Z,6.64
2019-01-19T18:50:59.510Z,6.70
2019-01-19T18:53:55.533Z,6.67
2019-01-19T18:57:04.199Z,6.64
2019-01-19T19:00:11.541Z,6.62
2019-01-19T19:03:20.143Z,6.63
2019-01-19T19:06:13.371Z,6.62
2019-01-19T19:09:18.259Z,6.56
2019-01-19T19:12:30.089Z,6.57
2019-01-19T19:15:35.997Z,6.51
2019-01-19T19:18:39.951Z,6.52
2019-01-19T19:21:39.422Z,6.47
2019-01-19T19:24:21.024Z,6.44
2019-01-19T19:27:27.654Z,6.41
2019-01-19T19:30:32.214Z,6.34
2019-01-19T19:33:34.188Z,6.32
2019-01-19T19:36:38.901Z,6.08
2019-01-19T19:39:50.774Z,6.11
2019-01-19T19:42:48.461Z,6.09
2019-01-19T19:45:54.281Z,6.03
2019-01-19T19:49:04.513Z,5.91
2019-01-19T19:52:05.463Z,5.72
2019-01-19T19:54:35.902Z,5.77
2019-01-19T19:57:06.054Z,5.84
2019-01-19T19:59:35.483Z,5.88
2019-01-19T20:02:05.182Z,5.87
2019-01-19T20:04:34.741Z,5.85
2019-01-19T20:07:04.480Z,5.83
2019-01-19T20:09:34.117Z,5.88
2019-01-19T20:12:09.766Z,5.72
2019-01-19T20:14:39.376Z,5.72
2019-01-19T20:17:09.006Z,5.67
2019-01-19T20:19:38.469Z,5.65
2019-01-19T20:22:08.104Z,5.66
2019-01-19T20:24:37.535Z,5.55
2019-01-19T20:27:06.931Z,5.54
2019-01-19T20:29:36.424Z,5.50
2019-01-19T20:32:06.024Z,5.51
2019-01-19T20:34:35.467Z,5.57
2019-01-19T20:37:05.089Z,5.56
2019-01-19T20:39:34.530Z,5.59
2019-01-19T20:42:04.019Z,5.62
2019-01-19T20:44:33.489Z,5.59
2019-01-19T20:47:02.943Z,5.51
2019-01-19T20:49:32.407Z,5.46
2019-01-19T20:52:01.847Z,5.43
2019-01-19T20:54:31.305Z,5.47
2019-01-19T20:57:00.790Z,5.40
2019-01-19T20:59:30.424Z,5.32
2019-01-19T21:01:59.890Z,5.41
2019-01-19T21:04:29.349Z,5.48
2019-01-19T21:06:59.034Z,5.44
2019-01-19T21:09:28.476Z,5.28
2019-01-19T21:11:57.878Z,5.23
2019-01-19T21:14:27.382Z,5.33
2019-01-19T21:16:56.936Z,5.12
2019-01-19T21:19:26.375Z,5.13
2019-01-19T21:21:55.844Z,5.21
2019-01-19T21:24:26.495Z,5.20
2019-01-19T21:26:55.946Z,5.25
2019-01-19T21:29:25.425Z,5.12
2019-01-19T21:31:54.952Z,5.10
2019-01-19T21:34:24.498Z,5.24
2019-01-19T21:36:53.938Z,5.27
2019-01-19T21:39:23.394Z,5.01
2019-01-19T21:41:52.899Z,5.15
2019-01-19T21:44:22.530Z,5.12
2019-01-19T21:46:51.928Z,5.23
2019-01-19T21:49:21.386Z,5.17
2019-01-19T21:51:51.064Z,5.13
2019-01-19T21:54:20.493Z,5.13
2019-01-19T21:56:49.894Z,5.05
2019-01-19T21:59:19.536Z,4.91
2019-01-19T22:01:49.083Z,5.08
2019-01-19T22:04:18.528Z,4.89
2019-01-19T22:06:48.026Z,4.92
2019-01-19T22:09:17.737Z,4.89
2019-01-19T22:11:47.338Z,4.78
2019-01-19T22:14:17.162Z,4.94
2019-01-19T22:16:46.888Z,5.02
2019-01-19T22:19:16.508Z,4.98
2019-01-19T22:21:46.151Z,5.02
2019-01-19T22:24:15.880Z,5.05
2019-01-19T22:26:49.910Z,4.91
2019-01-19T22:29:19.510Z,4.95
2019-01-19T22:31:49.105Z,5.07
2019-01-19T22:34:18.760Z,5.09
2019-01-19T22:36:48.371Z,5.11
2019-01-19T22:39:18.083Z,5.14
2019-01-19T22:41:47.727Z,4.97
2019-01-19T22:44:17.358Z,5.12
2019-01-19T22:46:47.067Z,5.06
2019-01-19T22:49:16.742Z,5.10
2019-01-19T22:51:47.030Z,5.09
2019-01-19T22:54:16.641Z,5.04
2019-01-19T22:56:46.601Z,5.10
2019-01-19T22:59:16.228Z,4.92
2019-01-19T23:01:51.515Z,4.62
2019-01-19T23:04:21.121Z,4.48
2019-01-19T23:06:50.752Z,4.63
2019-01-19T23:09:20.443Z,4.65
2019-01-19T23:11:50.138Z,4.61
2019-01-19T23:14:19.824Z,4.59
2019-01-19T23:16:49.557Z,4.64
2019-01-19T23:19:19.359Z,4.41
2019-01-19T23:21:49.573Z,4.48
2019-01-19T23:24:19.310Z,4.47
2019-01-19T23:26:49.793Z,4.44
2019-01-19T23:29:19.508Z,4.68
2019-01-19T23:31:48.954Z,4.76
2019-01-19T23:34:18.421Z,4.62
2019-01-19T23:36:47.926Z,4.50
2019-01-19T23:39:17.561Z,4.42
2019-01-19T23:41:46.968Z,4.43
2019-01-19T23:44:16.430Z,4.39
2019-01-19T23:46:45.961Z,4.44
2019-01-19T23:49:15.403Z,4.53
2019-01-19T23:51:44.798Z,4.43
2019-01-19T23:54:14.524Z,4.45
2019-01-19T23:56:44.003Z,4.54
2019-01-19T23:59:13.433Z,4.47
